Sedgwick Reserve, California Weather observations

Data are for 10 minute period ending at time listed.
 Day   Time   Solar   Ave.   Ave.  Ave.  Vector  Max.   Baro.   Total    
  of    of     Rad.   Air    Rel.  Wind   Wind   Wind  Press.  Precip.   
Year   Day            Temp.  Hum.  Speed  Dir.   Gust                    
2015   (PST)  Kw/m2    F      %     mph   deg.    mph    mb.     in.     
-------------------------------------------------------------------------
  89   20:50   0.00   52.6    89    1.7   110     2.9   973.9    0.00 
  89   21:00   0.00   52.1    90    2.3   115     3.4   973.8    0.00 
  89   21:10   0.00   51.5    90    1.2   138     2.4   973.9    0.00 
  89   21:20   0.00   51.3    92    0.6   138     2.3   974.0    0.00 
  89   21:30   0.00   50.1    90    2.9     4     5.2   974.1    0.00 
  89   21:40   0.00   48.2    90    5.3   360     6.4   974.1    0.00 
  89   21:50   0.00   48.7    91    3.7   353     5.7   974.1    0.00 
  89   22:00   0.00   48.9    91    1.9   297     3.2   974.2    0.00 
  89   22:10   0.00   48.8    89    2.1   345     3.5   974.3    0.00 
  89   22:20   0.00   48.3    88    1.7    18     3.2   974.3    0.00 
  89   22:30   0.00   47.2    88    1.7     2     2.4   974.3    0.00 
  89   22:40   0.00   47.5    89    0.4   240     1.6   974.3    0.00 
  89   22:50   0.00   47.4    88    0.4   339     2.0   974.3    0.00 
  89   23:00   0.00   47.0    89    0.9   252     2.8   974.3    0.00 
  89   23:10   0.00   46.8    90    1.1   275     2.0   974.3    0.00 
  89   23:20   0.00   46.1    90    1.2   356     3.7   974.3    0.00 
  89   23:30   0.00   46.0    90    2.3   354     4.7   974.3    0.00 
  89   23:40   0.00   46.2    91    1.2   277     2.8   974.3    0.00 
  89   23:50   0.00   46.0    91    1.7   288     2.9   974.4    0.00 
  90    0:00   0.00   45.7    91    1.2    16     3.9   974.3    0.00 
  90    0:10   0.00   45.3    91    1.6    12     2.6   974.2    0.00 
  90    0:20   0.00   44.7    92    1.8   255     3.9   974.1    0.00 
  90    0:30   0.00   45.4    92    2.8   276     4.4   974.2    0.00 
  90    0:40   0.00   44.4    92    2.0   356     3.7   974.3    0.00 
  90    0:50   0.00   44.5    92    0.9   278     2.9   974.4    0.00 
  90    1:00   0.00   45.0    93    0.8    24     2.3   974.3    0.00 
  90    1:10   0.00   45.7    92    1.2   264     2.3   974.2    0.00 
  90    1:20   0.00   45.6    90    1.1    17     2.6   974.1    0.00 
  90    1:30   0.00   45.4    93    2.1     2     3.0   974.1    0.00 
  90    1:40   0.00   45.8    95    1.4     6     2.9   973.9    0.00 
  90    1:50   0.00   46.4    96    0.9   254     3.1   973.9    0.00 
  90    2:00   0.00   46.9    97    1.0    11     3.7   973.8    0.00 
  90    2:10   0.00   46.2    97    2.3   353     3.5   973.7    0.00 
  90    2:20   0.00   46.5    98    0.1   354     0.9   973.6    0.00 
  90    2:30   0.00   46.6    98    0.3   232     1.4   973.7    0.00 
  90    2:40   0.00   46.7    98    1.1    22     3.2   973.7    0.00 
  90    2:50   0.00   46.7    98    1.5    33     3.3   973.6    0.00 
  90    3:00   0.00   46.7    98    1.1     5     3.3   973.5    0.00 
  90    3:10   0.00   46.5    98    3.6    22     5.1   973.5    0.00 
  90    3:20   0.00   45.8    99    4.0    10     6.5   973.4    0.00 
  90    3:30   0.00   45.5    99    2.2     7     4.0   973.3    0.00 
  90    3:40   0.00   45.4    99    1.4   330     3.1   973.3    0.00 
  90    3:50   0.00   45.6    99    1.9   315     4.0   973.5    0.00 
  90    4:00   0.00   44.9    99    3.8    10     5.9   973.5    0.00 
  90    4:10   0.00   44.2    99    3.6     6     5.5   973.5    0.00 
  90    4:20   0.00   44.4   100    2.9   355     4.2   973.5    0.00 
  90    4:30   0.00   44.4   100    4.2    10     5.9   973.6    0.00 
  90    4:40   0.00   44.0   100    2.8   356     5.3   973.6    0.00 
  90    4:50   0.00   44.0   100    2.3     5     3.9   973.6    0.00 
  90    5:00   0.00   43.6   100    3.7   357     5.0   973.7    0.00 
  90    5:10   0.00   43.5   100    3.0     7     5.0   973.8    0.00 
  90    5:20   0.00   43.5   100    3.8    10     5.7   974.0    0.00 
  90    5:30   0.00   43.3   100    4.3    12     5.8   974.0    0.00 
  90    5:40   0.00   43.9   100    1.7   328     3.1   973.9    0.00 
  90    5:50   0.00   44.7   100    1.9   298     3.6   974.0    0.00 
  90    6:00   0.00   44.3   100    4.3   358     7.8   974.1    0.00 
  90    6:10   0.01   44.1   100    2.6   334     5.5   974.2    0.00 
  90    6:20   0.01   45.2   100    0.7    14     3.1   974.4    0.00 
  90    6:30   0.04   44.6   100    2.7    19     4.1   974.5    0.00 
  90    6:40   0.05   45.1   100    2.1    10     3.4   974.5    0.00 
  90    6:50   0.06   45.5   100    2.0   359     3.1   974.7    0.00 
  90    7:00   0.06   45.9   100    2.3   349     4.4   974.7    0.00 
  90    7:10   0.08   45.8   100    3.7    10     5.0   974.9    0.00 
  90    7:20   0.10   46.1   100    2.0    12     4.7   974.9    0.00 
  90    7:30   0.13   47.4   100    0.6    68     2.3   974.9    0.00 
  90    7:40   0.18   48.4   100    1.0   118     2.6   975.0    0.00 
  90    7:50   0.22   49.1   100    1.5   134     3.0   975.0    0.00 
  90    8:00   0.20   48.9   100    1.9   109     4.6   975.0    0.00 
  90    8:10   0.20   48.9    99    2.1   160     3.8   975.0    0.00 
  90    8:20   0.22   49.2   100    2.6   172     4.5   974.9    0.00 
  90    8:30   0.27   50.1   100    1.6   148     3.4   975.0    0.00 
  90    8:40   0.25   50.7    99    1.1   114     4.3   975.1    0.00 
  90    8:50   0.34   52.1    98    1.6   267     5.4   975.2    0.00 
  90    9:00   0.31   51.9    95    2.9   252     5.4   975.3    0.00 
  90    9:10   0.56   53.7    89    2.2   194     4.9   975.2    0.00 
  90    9:20   0.59   55.3    82    1.6   204     5.2   975.1    0.00 
  90    9:30   0.57   56.8    77    2.3   191     5.1   975.2    0.00 
  90    9:40   0.59   57.8    76    3.2   214     5.5   975.3    0.00 
  90    9:50   0.65   58.9    73    1.3   167     4.7   975.3    0.00 
  90   10:00   0.68   61.5    68    2.7   157     5.8   975.3    0.00 
  90   10:10   0.69   62.6    64    4.4   174     8.0   975.3    0.00 
  90   10:20   0.74   64.2    60    4.9   182     9.1   975.5    0.00 
  90   10:30   0.75   66.0    54    6.0   234    11.4   975.5    0.00 
  90   10:40   0.77   66.6    52    6.2   249    11.7   975.4    0.00 
  90   10:50   0.78   68.2    46    9.7   270    15.6   975.4    0.00 
  90   11:00   0.80   68.2    45    9.4   265    14.7   975.4    0.00 
  90   11:10   0.73   68.8    43    8.3   280    12.9   975.3    0.00 
  90   11:20   0.81   69.7    42    8.2   269    13.7   975.2    0.00 
  90   11:30   0.83   70.9    40    7.2   277    15.1   975.0    0.00 
  90   11:40   0.82   73.0    38    6.8   290    12.9   974.8    0.00 
  90   11:50   0.80   73.2    39    9.7   268    15.9   974.6    0.00 
  90   12:00   0.85   73.8    37   13.2   259    22.5   974.3    0.00 
  90   12:10   0.87   74.5    35   14.3   258    24.5   974.1    0.00 
  90   12:20   0.87   75.6    32   15.7   265    23.4   974.0    0.00 
  90   12:30   0.86   76.8    30   15.0   272    24.0   973.8    0.00 
  90   12:40   0.86   77.3    29   15.7   272    25.4   973.7    0.00 
  90   12:50   0.86   79.0    28   12.3   278    22.1   973.6    0.00 
  90   13:00   0.84   78.9    28   13.7   288    24.3   973.5    0.00 
  90   13:10   0.83   77.9    29   15.0   279    24.5   973.5    0.00 
  90   13:20   0.82   77.2    30   16.0   284    24.1   973.5    0.00 
  90   13:30   0.81   76.2    31   16.1   278    25.2   973.4    0.00 
  90   13:40   0.80   76.2    31   16.3   275    25.6   973.2    0.00 
  90   13:50   0.78   75.5    32   19.5   276    27.3   973.0    0.00 
  90   14:00   0.76   75.0    33   19.5   277    29.5   973.0    0.00 
  90   14:10   0.75   75.4    33   18.2   274    27.2   972.8    0.00 
  90   14:20   0.73   75.7    33   16.3   278    27.0   972.7    0.00 
  90   14:30   0.71   74.6    35   19.4   276    27.8   972.6    0.00 
  90   14:40   0.68   74.8    35   16.4   276    24.8   972.5    0.00 
  90   14:50   0.66   74.7    36   15.9   275    25.9   972.5    0.00 
  90   15:00   0.63   74.6    37   17.4   278    27.8   972.5    0.00 
  90   15:10   0.60   72.0    40   19.8   274    29.3   972.4    0.00 
  90   15:20   0.57   72.5    39   16.6   275    29.3   972.4    0.00 
  90   15:30   0.54   72.2    40   17.1   275    25.1   972.4    0.00 
  90   15:40   0.51   71.4    42   18.4   272    26.2   972.3    0.00 
  90   15:50   0.47   71.4    42   17.8   278    27.0   972.2    0.00 
  90   16:00   0.44   71.7    42   15.0   276    25.8   972.2    0.00 
  90   16:10   0.41   71.0    43   18.8   278    27.5   972.2    0.00 
  90   16:20   0.38   70.1    45   17.4   274    27.0   972.1    0.00 
  90   16:30   0.34   69.4    46   17.7   274    27.3   972.0    0.00 
  90   16:40   0.30   68.9    47   16.2   279    26.2   972.1    0.00 
  90   16:50   0.27   67.8    48   16.8   277    25.9   972.0    0.00 
  90   17:00   0.23   67.0    50   16.2   278    27.1   972.1    0.00 
  90   17:10   0.19   66.1    51   16.7   275    25.2   972.1    0.00 
  90   17:20   0.16   65.3    52   14.3   280    24.4   972.3    0.00 
  90   17:30   0.12   64.7    53    8.1   309    17.8   972.4    0.00 
  90   17:40   0.09   64.2    54    9.2   302    16.7   972.3    0.00 
  90   17:50   0.07   63.1    57   10.7   294    19.7   972.3    0.00 
  90   18:00   0.04   62.0    59   11.2   293    20.0   972.4    0.00 
  90   18:10   0.02   60.9    61    7.8   311    16.1   972.6    0.00 
  90   18:20   0.01   60.1    62    3.8   320     8.0   972.7    0.00 
  90   18:30   0.00   59.4    64    3.8   334     7.9   972.7    0.00 
  90   18:40   0.00   58.8    65    4.7   297    10.8   972.7    0.00 
  90   18:50   0.00   57.9    66    4.9   299     8.5   972.8    0.00 
  90   19:00   0.00   57.4    66    3.8   322     7.8   972.8    0.00 
  90   19:10   0.00   57.2    66    3.0   326     7.0   973.0    0.00 
  90   19:20   0.00   57.0    67    1.7   346     5.1   973.1    0.00 
  90   19:30   0.00   56.5    68    0.6   279     2.4   973.2    0.00 
  90   19:40   0.00   55.8    69    1.5   142     3.5   973.3    0.00 
  90   19:50   0.00   54.8    70    1.6   116     3.7   973.3    0.00 
  90   20:00   0.00   53.5    73    0.8   228     3.2   973.3    0.00 
  90   20:10   0.00   52.8    75    1.3   309     2.9   973.5    0.00 
  90   20:20   0.00   52.0    76    2.1   343     4.5   973.6    0.00 
  90   20:30   0.00   51.0    78    2.6     1     4.3   973.6    0.00 
  90   20:40   0.00   50.6    78    1.7   266     5.5   973.6    0.00 

Return to Sedgwick Reserve graphs page.


Western Regional Climate Center,wrcc@dri.edu